Time;durP1;ratioP1;P1;durP2;ratioP2;P2;SDS_P1;SDS_P2;PMS_P1;PMS_P2;Temp;Humidity;BMP_temperature;BMP_pressure;BME280_temperature;BME280_humidity;BME280_pressure;Samples;Min_cycle;Max_cycle;Signal;HPM_P1;HPM_P2
2021/12/09 00:01:50;;;;;;;32.57;21.40;;;;;;;-143.84;86.00;45119.53;5073147;28;20484;-73
2021/12/09 00:04:25;;;;;;;35.50;19.30;;;;;;;-143.84;86.13;45102.38;5073708;28;20429;-73
2021/12/09 00:06:54;;;;;;;23.83;17.40;;;;;;;-143.84;85.83;45098.56;5073432;28;20444;-73
2021/12/09 00:09:22;;;;;;;27.70;16.13;;;;;;;-143.84;85.40;45132.84;5086081;28;20486;-73
2021/12/09 00:11:51;;;;;;;22.20;16.10;;;;;;;-143.84;85.29;45106.19;5075579;28;20443;-73
2021/12/09 00:14:21;;;;;;;29.17;19.17;;;;;;;-143.84;85.30;45104.28;5093462;28;20448;-73
2021/12/09 00:16:49;;;;;;;26.07;19.43;;;;;;;-143.84;85.54;45136.66;5093287;28;20513;-73
2021/12/09 00:19:17;;;;;;;28.57;19.67;;;;;;;-143.84;85.23;45106.19;5093539;28;20961;-73
2021/12/09 00:21:44;;;;;;;27.90;19.10;;;;;;;-143.84;85.46;45121.44;5093390;28;20487;-73
2021/12/09 00:24:12;;;;;;;27.33;18.70;;;;;;;-143.84;85.51;45127.13;5093584;28;21246;-73
2021/12/09 00:26:40;;;;;;;26.47;17.70;;;;;;;-143.84;85.52;45090.97;5093186;28;20443;-73
2021/12/09 00:29:08;;;;;;;32.47;21.60;;;;;;;-143.84;85.56;45123.34;5093338;28;20448;-73
2021/12/09 00:31:36;;;;;;;30.00;20.97;;;;;;;-143.84;85.56;45138.56;5092908;28;20481;-73
2021/12/09 00:34:04;;;;;;;31.13;20.87;;;;;;;-143.84;85.61;45110.00;5093095;28;20444;-73
2021/12/09 00:36:37;;;;;;;33.03;21.17;;;;;;;-143.84;85.89;45117.63;5092985;28;20439;-73
2021/12/09 00:39:06;;;;;;;29.97;18.87;;;;;;;-143.84;85.84;45102.38;5093253;28;20852;-73
2021/12/09 00:41:33;;;;;;;26.43;17.83;;;;;;;-143.84;85.90;45092.88;5092718;28;20479;-73
2021/12/09 00:44:00;;;;;;;30.90;20.47;;;;;;;-143.84;85.83;45098.56;5093117;28;20420;-73
2021/12/09 00:46:29;;;;;;;31.77;19.33;;;;;;;-143.84;85.98;45130.94;5092844;28;20440;-73
2021/12/09 00:48:56;;;;;;;28.83;18.73;;;;;;;-143.84;85.66;45117.63;5091741;28;20449;-73
2021/12/09 00:51:24;;;;;;;31.80;18.80;;;;;;;-143.84;85.44;45138.56;5093103;28;20448;-73
2021/12/09 00:53:51;;;;;;;31.80;19.30;;;;;;;-143.84;85.27;45134.75;5093027;28;20444;-73
2021/12/09 00:56:19;;;;;;;23.40;16.13;;;;;;;-143.84;85.01;45134.75;5092365;28;20497;-73
2021/12/09 00:58:46;;;;;;;29.93;17.77;;;;;;;-143.84;85.23;45140.47;5092574;28;20432;-73
2021/12/09 01:01:14;;;;;;;25.83;16.80;;;;;;;-143.84;85.32;45144.28;5092616;28;20540;-73
2021/12/09 01:03:43;;;;;;;27.07;16.70;;;;;;;-143.84;85.33;45127.13;5092639;28;20477;-73
2021/12/09 01:06:12;;;;;;;26.03;16.77;;;;;;;-143.84;84.89;45129.03;5092457;28;20440;-73
2021/12/09 01:08:42;;;;;;;27.60;16.10;;;;;;;-143.84;85.30;45119.53;5092123;28;20480;-73
2021/12/09 01:11:10;;;;;;;25.20;17.30;;;;;;;-143.84;85.07;45092.88;5092286;28;20440;-73
2021/12/09 01:13:37;;;;;;;21.93;17.00;;;;;;;-143.84;85.27;45170.94;5092409;28;20500;-73
2021/12/09 01:16:06;;;;;;;25.43;16.10;;;;;;;-143.84;84.99;45146.19;5092610;28;20454;-73
2021/12/09 01:18:33;;;;;;;25.03;17.20;;;;;;;-143.84;84.76;45136.66;5092139;28;20473;-73
2021/12/09 01:21:02;;;;;;;19.80;15.30;;;;;;;-143.84;85.20;45130.94;5092137;28;20541;-73
2021/12/09 01:23:29;;;;;;;23.73;15.70;;;;;;;-143.84;85.27;45125.22;5092069;28;20440;-77
2021/12/09 01:26:01;;;;;;;26.90;15.77;;;;;;;-143.84;84.81;45144.28;5090114;28;20444;-78
2021/12/09 01:28:32;;;;;;;21.03;14.10;;;;;;;-143.84;84.53;45169.03;5089678;28;21006;-78
2021/12/09 01:31:02;;;;;;;19.83;13.90;;;;;;;-143.84;84.23;45155.69;5092694;28;20440;-78
2021/12/09 01:33:30;;;;;;;20.07;13.13;;;;;;;-143.84;83.35;45119.53;5092988;28;20451;-78
2021/12/09 01:35:58;;;;;;;18.50;13.07;;;;;;;-143.84;82.92;45193.78;5092937;28;21045;-78
2021/12/09 01:38:30;;;;;;;28.87;18.90;;;;;;;-143.84;82.28;45167.13;5093139;28;20428;-78
2021/12/09 01:41:00;;;;;;;30.23;18.07;;;;;;;-143.84;82.69;45186.16;5092660;28;21000;-78
2021/12/09 01:43:27;;;;;;;33.97;18.93;;;;;;;-143.84;82.85;45174.75;5091437;28;20439;-73
2021/12/09 01:46:04;;;;;;;33.20;18.30;;;;;;;-143.84;82.95;45188.06;5090662;28;20504;-73
2021/12/09 01:48:31;;;;;;;38.03;15.57;;;;;;;-143.84;82.81;45193.78;5090537;28;20442;-73
2021/12/09 01:50:59;;;;;;;23.50;16.40;;;;;;;-143.84;82.89;45197.59;5090453;28;20436;-73
2021/12/09 01:53:27;;;;;;;20.80;15.17;;;;;;;-143.84;82.61;45161.41;5090624;28;20447;-73
2021/12/09 01:55:56;;;;;;;21.37;13.93;;;;;;;-143.84;82.89;45167.13;5090488;28;20452;-73
2021/12/09 01:58:23;;;;;;;19.70;13.70;;;;;;;-143.84;83.03;45210.94;5090506;28;20440;-72
2021/12/09 02:00:51;;;;;;;19.73;12.87;;;;;;;-143.84;83.26;45153.81;5089767;28;20459;-73
2021/12/09 02:03:18;;;;;;;18.77;11.67;;;;;;;-143.84;83.38;45174.75;5090245;28;20444;-73
2021/12/09 02:05:46;;;;;;;17.87;12.10;;;;;;;-143.84;83.49;45163.31;5090042;28;20440;-73
2021/12/09 02:08:14;;;;;;;15.67;11.47;;;;;;;-143.84;83.76;45144.28;5090096;28;20475;-72
2021/12/09 02:10:45;;;;;;;15.20;11.13;;;;;;;-143.84;83.46;45169.03;5090173;28;20459;-72
2021/12/09 02:13:13;;;;;;;18.17;12.33;;;;;;;-143.84;83.04;45132.84;5090015;28;20448;-73
2021/12/09 02:15:41;;;;;;;16.80;11.60;;;;;;;-143.84;83.62;45172.84;5089936;28;20444;-73
2021/12/09 02:18:10;;;;;;;16.90;11.07;;;;;;;-143.84;83.95;45155.69;5089707;28;20434;-73
2021/12/09 02:20:40;;;;;;;14.00;11.07;;;;;;;-143.84;83.77;45148.09;5089852;28;20501;-73
2021/12/09 02:23:11;;;;;;;14.57;11.90;;;;;;;-143.84;84.40;45130.94;5089621;28;20490;-73
2021/12/09 02:25:44;;;;;;;17.20;12.83;;;;;;;-143.84;84.57;45159.50;5089903;28;21296;-72
2021/12/09 02:28:13;;;;;;;23.10;13.23;;;;;;;-143.84;85.23;45127.13;5089721;28;20444;-72
2021/12/09 02:30:40;;;;;;;19.90;13.57;;;;;;;-143.84;85.58;45142.38;5089839;28;20819;-73
2021/12/09 02:33:07;;;;;;;20.40;13.20;;;;;;;-143.84;85.60;45117.63;5089971;28;20444;-73
2021/12/09 02:35:36;;;;;;;26.03;15.30;;;;;;;-143.84;85.88;45125.22;5089942;28;20999;-72
2021/12/09 02:38:07;;;;;;;16.73;13.03;;;;;;;-143.84;85.85;45121.44;5090014;28;20466;-73
2021/12/09 02:40:35;;;;;;;23.83;14.40;;;;;;;-143.84;86.13;45092.88;5089374;28;20439;-72
2021/12/09 02:43:04;;;;;;;25.60;14.77;;;;;;;-143.84;86.10;45087.16;5089500;28;20487;-73
2021/12/09 02:45:32;;;;;;;24.20;17.10;;;;;;;-143.84;86.34;45110.00;5089835;28;20466;-73
2021/12/09 02:48:00;;;;;;;20.27;15.33;;;;;;;-143.84;86.62;45106.19;5089650;28;20443;-73
2021/12/09 02:50:27;;;;;;;26.13;17.23;;;;;;;-143.84;87.30;45014.78;5089653;28;21009;-72
2021/12/09 02:52:55;;;;;;;20.53;14.87;;;;;;;-143.84;87.73;45014.78;5089368;28;20483;-72
2021/12/09 02:55:23;;;;;;;22.03;15.67;;;;;;;-143.84;87.88;44971.00;5089462;28;20435;-73
2021/12/09 02:57:53;;;;;;;24.53;17.43;;;;;;;-143.84;88.47;44948.16;5089543;28;20485;-73
2021/12/09 03:00:21;;;;;;;26.13;16.10;;;;;;;-143.84;89.18;44788.22;5089332;28;20486;-73
2021/12/09 03:02:49;;;;;;;26.13;15.60;;;;;;;-143.84;90.44;44584.47;5089178;28;20475;-73
2021/12/09 03:05:16;;;;;;;29.00;17.97;;;;;;;-143.84;91.18;44312.25;5089286;28;20443;-72
2021/12/09 03:07:44;;;;;;;21.93;16.97;;;;;;;-143.84;91.82;44150.41;5089236;28;20859;-73
2021/12/09 03:10:19;;;;;;;29.57;16.63;;;;;;;-143.84;92.12;44040.00;5088887;28;20476;-73
2021/12/09 03:12:49;;;;;;;27.47;17.20;;;;;;;-143.84;92.76;43954.34;5088697;28;20797;-73
2021/12/09 03:15:17;;;;;;;25.57;17.30;;;;;;;-143.84;93.27;43914.38;5089633;28;20440;-73
2021/12/09 03:17:46;;;;;;;27.43;18.00;;;;;;;-143.84;93.34;43929.59;5089297;28;20447;-73
2021/12/09 03:20:14;;;;;;;28.33;17.17;;;;;;;-143.84;93.38;43925.78;5089186;28;20454;-73
2021/12/09 03:22:43;;;;;;;26.80;17.37;;;;;;;-143.84;93.42;43899.16;5089219;28;20552;-73
2021/12/09 03:25:12;;;;;;;24.70;17.30;;;;;;;-143.84;93.04;43887.72;5089188;28;20498;-73
2021/12/09 03:27:40;;;;;;;23.80;17.03;;;;;;;-143.84;92.45;43979.09;5089126;28;20436;-73
2021/12/09 03:30:13;;;;;;;28.30;17.10;;;;;;;-143.84;92.22;44047.63;5088853;28;20489;-72
2021/12/09 03:32:40;;;;;;;22.40;15.77;;;;;;;-143.84;91.46;44167.56;5089019;28;20444;-73
2021/12/09 03:35:09;;;;;;;22.57;14.53;;;;;;;-143.84;91.09;44253.22;5088937;28;20452;-72
2021/12/09 03:37:37;;;;;;;20.10;13.37;;;;;;;-143.84;90.71;44348.41;5088807;28;20443;-72
2021/12/09 03:40:07;;;;;;;22.20;14.07;;;;;;;-143.84;90.31;44510.22;5088694;28;20453;-73
2021/12/09 03:42:35;;;;;;;20.97;15.30;;;;;;;-143.84;90.06;44565.44;5088911;28;20475;-73
2021/12/09 03:45:03;;;;;;;27.13;14.80;;;;;;;-143.84;89.55;44725.38;5088761;28;20435;-73
2021/12/09 03:47:35;;;;;;;22.50;13.80;;;;;;;-143.84;89.53;44721.56;5088829;28;20474;-72
2021/12/09 03:50:03;;;;;;;21.80;14.43;;;;;;;-143.84;89.41;44721.56;5070631;28;20457;-73
2021/12/09 03:52:30;;;;;;;25.80;14.77;;;;;;;-143.84;89.46;44725.38;5088544;28;20509;-73
2021/12/09 03:54:59;;;;;;;21.77;14.27;;;;;;;-143.84;89.16;44772.97;5089216;28;20497;-72
2021/12/09 03:57:26;;;;;;;26.50;15.13;;;;;;;-143.84;88.70;44847.22;5088682;28;20501;-73
2021/12/09 03:59:54;;;;;;;24.67;15.53;;;;;;;-143.84;88.83;44868.19;5088857;28;20490;-73
2021/12/09 04:02:22;;;;;;;20.63;13.57;;;;;;;-143.84;88.43;44919.59;5088341;28;20483;-72
2021/12/09 04:04:51;;;;;;;26.80;14.00;;;;;;;-143.84;87.98;44940.53;5088504;28;20435;-73
2021/12/09 04:07:18;;;;;;;25.53;16.63;;;;;;;-143.84;88.13;44929.09;5088698;28;20860;-72
2021/12/09 04:09:45;;;;;;;27.57;16.53;;;;;;;-143.84;87.97;44929.09;5088447;28;20491;-72
2021/12/09 04:12:14;;;;;;;25.80;19.30;;;;;;;-143.84;87.74;44957.66;5088712;28;20456;-73
2021/12/09 04:14:41;;;;;;;29.67;21.70;;;;;;;-143.84;87.74;44972.91;5088743;28;20447;-72
2021/12/09 04:17:08;;;;;;;27.40;22.00;;;;;;;-143.84;87.82;44957.66;5088372;28;20938;-73
2021/12/09 04:19:36;;;;;;;34.37;24.23;;;;;;;-143.84;87.87;44923.41;5088566;28;20460;-73
2021/12/09 04:22:05;;;;;;;42.37;22.40;;;;;;;-143.84;88.00;44932.91;5088094;28;21073;-73
2021/12/09 04:24:33;;;;;;;29.03;19.73;;;;;;;-143.84;88.06;44957.66;5092082;28;20448;-72
2021/12/09 04:27:00;;;;;;;29.40;20.27;;;;;;;-143.84;88.09;44946.25;5092204;28;20435;-73
2021/12/09 04:29:27;;;;;;;29.50;19.90;;;;;;;-143.84;88.39;44896.75;5092123;28;20469;-73
2021/12/09 04:31:54;;;;;;;33.40;20.80;;;;;;;-143.84;88.79;44908.16;5092088;28;20501;-73
2021/12/09 04:34:21;;;;;;;32.57;19.23;;;;;;;-143.84;89.00;44820.56;5092060;28;20452;-73
2021/12/09 04:36:49;;;;;;;29.03;20.23;;;;;;;-143.84;89.45;44801.53;5091853;28;20440;-73
2021/12/09 04:39:18;;;;;;;29.60;20.90;;;;;;;-143.84;89.31;44799.63;5091830;28;20452;-73
2021/12/09 04:41:45;;;;;;;32.07;22.10;;;;;;;-143.84;89.10;44788.22;5091718;28;20452;-73
2021/12/09 04:44:12;;;;;;;31.70;19.87;;;;;;;-143.84;89.29;44759.66;5091729;28;20436;-73
2021/12/09 04:46:39;;;;;;;30.10;20.87;;;;;;;-143.84;89.04;44837.72;5091905;28;20436;-73
2021/12/09 04:49:07;;;;;;;32.77;20.50;;;;;;;-143.84;89.02;44822.47;5091802;28;20485;-72
2021/12/09 04:51:34;;;;;;;30.40;19.90;;;;;;;-143.84;88.99;44826.28;5091285;28;20436;-73
2021/12/09 04:54:02;;;;;;;36.70;22.30;;;;;;;-143.84;89.10;44822.47;5091710;28;20469;-73
2021/12/09 04:56:31;;;;;;;28.23;19.77;;;;;;;-143.84;89.03;44849.13;5091569;28;20536;-73
2021/12/09 04:58:58;;;;;;;30.10;20.70;;;;;;;-143.84;88.95;44809.16;5091690;28;20509;-73
2021/12/09 05:01:25;;;;;;;27.47;19.83;;;;;;;-143.84;88.86;44835.81;5091590;28;20447;-73
2021/12/09 05:03:53;;;;;;;29.70;20.40;;;;;;;-143.84;89.07;44837.72;5091651;28;20858;-73
2021/12/09 05:06:20;;;;;;;24.47;17.40;;;;;;;-143.84;88.95;44835.81;5091169;28;20481;-73
2021/12/09 05:08:49;;;;;;;24.50;15.97;;;;;;;-143.84;88.97;44870.09;5091227;28;20861;-73
2021/12/09 05:11:29;;;;;;;28.03;16.87;;;;;;;-143.84;89.16;44814.88;5091127;28;20794;-73
2021/12/09 05:13:59;;;;;;;35.70;17.83;;;;;;;-143.84;89.34;44761.56;5091174;28;20455;-73
2021/12/09 05:16:26;;;;;;;24.70;17.30;;;;;;;-143.84;89.74;44673.97;5091152;28;20509;-73
2021/12/09 05:18:58;;;;;;;28.33;17.17;;;;;;;-143.84;89.81;44660.63;5091545;28;20509;-77
2021/12/09 05:21:28;;;;;;;23.87;15.23;;;;;;;-143.84;90.04;44626.38;5073620;28;20930;-73
2021/12/09 05:23:57;;;;;;;26.50;17.27;;;;;;;-143.84;90.69;44443.59;5071327;28;20501;-75
2021/12/09 05:26:28;;;;;;;21.80;16.50;;;;;;;-143.84;91.77;44129.47;5071058;28;20869;-73
2021/12/09 05:28:57;;;;;;;25.60;18.97;;;;;;;-143.84;93.03;43952.44;5070943;28;20463;-75
2021/12/09 05:34:13;;;;;;;41.20;24.43;;;;;;;-143.84;92.44;44030.50;5042615;28;21060;-73
2021/12/09 05:36:40;;;;;;;28.93;20.80;;;;;;;-143.84;91.98;44066.66;5070125;28;20436;-73
2021/12/09 05:39:10;;;;;;;28.43;19.87;;;;;;;-143.84;92.01;44068.56;5070374;28;20440;-73
2021/12/09 05:41:37;;;;;;;24.90;18.07;;;;;;;-143.84;92.09;44030.50;5070147;28;20444;-74
2021/12/09 05:44:07;;;;;;;32.03;18.17;;;;;;;-143.84;92.05;44099.03;5070169;28;20488;-73
2021/12/09 05:46:38;;;;;;;25.77;18.40;;;;;;;-143.84;91.99;44064.75;5070278;28;20445;-73
2021/12/09 05:49:05;;;;;;;25.13;18.90;;;;;;;-143.84;91.67;44119.97;5070316;28;20449;-73
2021/12/09 05:51:33;;;;;;;30.17;19.87;;;;;;;-143.84;91.16;44249.41;5070419;28;20467;-73
2021/12/09 05:54:00;;;;;;;32.50;21.43;;;;;;;-143.84;91.37;44245.59;5070234;28;20437;-73
2021/12/09 05:56:28;;;;;;;32.47;21.60;;;;;;;-143.84;91.06;44266.53;5070049;28;20449;-73
2021/12/09 05:58:55;;;;;;;37.97;23.00;;;;;;;-143.84;90.76;44397.91;5070143;28;20452;-73
2021/12/09 06:01:24;;;;;;;38.37;22.03;;;;;;;-143.84;90.86;44363.63;5069940;28;21055;-73
2021/12/09 06:03:51;;;;;;;34.90;20.67;;;;;;;-143.84;91.05;44276.06;5069660;28;20526;-73
2021/12/09 06:06:18;;;;;;;24.63;17.93;;;;;;;-143.84;91.10;44289.41;5069842;28;20864;-73
2021/12/09 06:08:46;;;;;;;28.47;19.63;;;;;;;-143.84;91.27;44196.13;5062098;28;20495;-73
2021/12/09 06:11:14;;;;;;;30.77;19.87;;;;;;;-143.84;91.47;44165.66;5050022;28;20446;-73
2021/12/09 06:13:42;;;;;;;114.60;50.57;;;;;;;-143.84;91.66;44163.75;5049704;28;20456;-73
2021/12/09 06:16:10;;;;;;;109.50;63.77;;;;;;;-143.84;91.38;44180.88;5049627;28;20450;-73
2021/12/09 06:18:38;;;;;;;82.83;48.23;;;;;;;-143.84;91.51;44171.38;5049966;28;20545;-73
2021/12/09 06:21:06;;;;;;;60.53;36.57;;;;;;;-143.84;91.53;44137.09;5049670;28;20473;-73
2021/12/09 06:23:34;;;;;;;45.30;28.10;;;;;;;-143.84;91.24;44207.53;5049464;28;20531;-73
2021/12/09 06:26:01;;;;;;;48.60;30.07;;;;;;;-143.84;91.05;44199.91;5049582;28;20816;-73
2021/12/09 06:28:28;;;;;;;46.43;26.07;;;;;;;-143.84;91.02;44177.06;5049912;28;20438;-73
2021/12/09 06:30:55;;;;;;;46.53;25.43;;;;;;;-143.84;91.33;44224.66;5049572;28;20761;-73
2021/12/09 06:33:22;;;;;;;96.53;44.97;;;;;;;-143.84;91.21;44209.44;5049277;28;20446;-73
2021/12/09 06:35:51;;;;;;;55.60;28.40;;;;;;;-143.84;91.09;44198.00;5049320;28;20446;-73
2021/12/09 06:38:18;;;;;;;43.40;24.27;;;;;;;-143.84;90.83;44276.06;5030354;28;21129;-74
2021/12/09 06:40:46;;;;;;;49.97;25.67;;;;;;;-143.84;90.33;44375.06;5037006;28;20452;-73
2021/12/09 06:43:14;;;;;;;36.20;23.80;;;;;;;-143.84;90.01;44512.13;5014343;28;20489;-74
2021/12/09 06:45:42;;;;;;;31.03;18.83;;;;;;;-143.84;89.49;44614.94;5035488;28;20441;-73
2021/12/09 06:48:09;;;;;;;27.73;19.97;;;;;;;-143.84;88.90;44759.66;5030074;28;20454;-73
2021/12/09 06:50:37;;;;;;;28.43;20.97;;;;;;;-143.84;87.70;44801.53;5027128;28;20470;-74
2021/12/09 06:53:06;;;;;;;30.27;20.13;;;;;;;-143.84;87.50;44917.69;5034687;28;20495;-73
2021/12/09 06:55:33;;;;;;;28.10;16.77;;;;;;;-143.84;87.26;44921.50;5037246;28;20442;-73
2021/12/09 06:58:01;;;;;;;27.27;19.70;;;;;;;-143.84;86.18;45012.88;5033941;28;20968;-73
2021/12/09 07:00:31;;;;;;;27.33;17.87;;;;;;;-143.84;85.30;45037.66;5031321;28;20573;-73
2021/12/09 07:02:59;;;;;;;23.00;17.63;;;;;;;-143.84;84.70;45075.72;5031441;28;21748;-73
2021/12/09 07:05:29;;;;;;;20.10;16.70;;;;;;;-143.84;84.12;45119.53;5019697;28;20450;-73
2021/12/09 07:07:57;;;;;;;19.90;15.10;;;;;;;-143.84;82.65;45119.53;5022496;28;20819;-74
2021/12/09 07:10:26;;;;;;;35.23;20.60;;;;;;;-143.84;82.86;45148.09;5040657;28;20456;-74
2021/12/09 07:12:54;;;;;;;19.30;14.63;;;;;;;-143.84;82.19;45144.28;5043331;28;20461;-73
2021/12/09 07:15:22;;;;;;;28.83;16.47;;;;;;;-143.84;81.10;45167.13;5041292;28;20442;-73
2021/12/09 07:17:50;;;;;;;29.37;15.70;;;;;;;-143.84;80.35;45163.31;5043150;28;20473;-74
2021/12/09 07:20:22;;;;;;;22.80;15.50;;;;;;;-143.84;80.51;45178.56;5041920;28;20441;-73
2021/12/09 07:22:51;;;;;;;17.90;13.60;;;;;;;-143.84;79.65;45172.84;5041791;28;20481;-73
2021/12/09 07:25:20;;;;;;;20.93;14.43;;;;;;;-143.84;79.71;45155.69;5043948;28;21000;-74
2021/12/09 07:27:49;;;;;;;18.23;14.10;;;;;;;-143.84;78.37;45180.47;5040196;28;20466;-74
2021/12/09 07:30:18;;;;;;;19.23;12.83;;;;;;;-143.84;77.87;45165.22;5040507;28;20452;-74
2021/12/09 07:32:46;;;;;;;17.73;14.07;;;;;;;-143.84;77.10;45165.22;5043618;28;20439;-73
2021/12/09 07:35:15;;;;;;;16.57;11.87;;;;;;;-143.84;76.44;45170.94;5043127;28;20447;-73
2021/12/09 07:37:43;;;;;;;42.33;22.27;;;;;;;-143.84;76.00;45193.78;5041132;28;20452;-74
2021/12/09 07:40:13;;;;;;;17.60;12.13;;;;;;;-143.84;75.53;45199.50;5042143;28;20537;-74
2021/12/09 07:42:41;;;;;;;41.43;23.90;;;;;;;-143.84;74.68;45203.31;5042247;28;21458;-74
2021/12/09 07:45:12;;;;;;;21.37;15.00;;;;;;;-143.84;73.53;45193.78;5040779;28;21183;-74
2021/12/09 07:47:39;;;;;;;27.33;14.80;;;;;;;-143.84;73.98;45153.81;5038915;28;20449;-74
2021/12/09 07:50:10;;;;;;;15.73;11.63;;;;;;;-143.84;71.55;45191.88;5040630;28;20457;-74
2021/12/09 07:52:38;;;;;;;17.00;11.90;;;;;;;-143.84;70.72;45178.56;5042783;28;20452;-74
2021/12/09 07:55:06;;;;;;;15.27;11.57;;;;;;;-143.84;70.48;45184.25;5040313;28;20444;-74
2021/12/09 07:57:35;;;;;;;24.83;16.67;;;;;;;-143.84;70.46;45180.47;5040492;28;20484;-72
2021/12/09 08:00:05;;;;;;;19.80;12.13;;;;;;;-143.84;70.38;45172.84;5043837;28;21314;-73
2021/12/09 08:02:35;;;;;;;25.67;16.90;;;;;;;-143.84;69.98;45155.69;5045633;28;20529;-74
2021/12/09 08:05:02;;;;;;;18.07;13.73;;;;;;;-143.84;69.63;45167.13;5046240;28;20444;-73
2021/12/09 08:07:31;;;;;;;17.90;13.70;;;;;;;-143.84;70.34;45165.22;5043704;28;20446;-74
2021/12/09 08:09:58;;;;;;;17.20;11.00;;;;;;;-143.84;68.83;45180.47;5045644;28;20487;-74
2021/12/09 08:12:25;;;;;;;19.63;11.50;;;;;;;-143.84;68.94;45186.16;5044612;28;20443;-74
2021/12/09 08:14:52;;;;;;;16.47;12.13;;;;;;;-143.84;69.35;45172.84;5045027;28;20960;-74
2021/12/09 08:17:45;;;;;;;19.30;13.93;;;;;;;-143.84;69.17;45197.59;5045219;28;20449;-74
2021/12/09 08:20:18;;;;;;;15.70;10.60;;;;;;;-143.84;67.76;45157.59;5045599;28;20437;-74
2021/12/09 08:22:47;;;;;;;11.23;8.77;;;;;;;-143.84;65.80;45167.13;5043543;28;20461;-73
2021/12/09 08:25:16;;;;;;;11.20;9.40;;;;;;;-143.84;65.84;45161.41;5043495;28;20503;-74
2021/12/09 08:27:44;;;;;;;10.67;8.30;;;;;;;-143.84;64.79;45157.59;5041620;28;20531;-73
2021/12/09 08:30:14;;;;;;;12.50;9.70;;;;;;;-143.84;64.99;45170.94;5041137;28;20951;-73
2021/12/09 08:32:41;;;;;;;11.77;9.00;;;;;;;-143.84;65.02;45155.69;5043316;28;20526;-73
2021/12/09 08:35:09;;;;;;;14.07;9.50;;;;;;;-143.84;64.19;45136.66;5041778;28;20460;-73
2021/12/09 08:37:38;;;;;;;10.70;9.30;;;;;;;-143.84;64.19;45151.91;5041502;28;20552;-73
2021/12/09 08:40:08;;;;;;;12.80;10.10;;;;;;;-143.84;63.63;45180.47;5045314;28;20464;-72
2021/12/09 08:42:36;;;;;;;12.77;10.37;;;;;;;-143.84;62.81;45151.91;5041650;28;20442;-72
2021/12/09 08:45:06;;;;;;;13.37;8.80;;;;;;;-143.84;62.46;45136.66;5043710;28;20562;-73
2021/12/09 08:47:33;;;;;;;15.83;10.43;;;;;;;-143.84;62.66;45161.41;5049079;28;20453;-72
2021/12/09 08:50:01;;;;;;;12.83;9.20;;;;;;;-143.84;62.64;45148.09;5055553;28;20471;-74
2021/12/09 08:52:29;;;;;;;11.57;8.37;;;;;;;-143.84;61.88;45157.59;5053502;28;20449;-74
2021/12/09 08:54:57;;;;;;;15.97;10.70;;;;;;;-143.84;61.62;45159.50;5052574;28;20456;-72
2021/12/09 08:57:25;;;;;;;41.77;28.17;;;;;;;-143.84;60.62;45150.00;5050169;28;20455;-74
2021/12/09 08:59:52;;;;;;;26.77;18.93;;;;;;;-143.84;60.33;45157.59;5055221;28;20477;-76
2021/12/09 09:02:20;;;;;;;12.03;8.90;;;;;;;-143.84;60.73;45140.47;5055400;28;20444;-76
2021/12/09 09:04:48;;;;;;;16.03;7.97;;;;;;;-143.84;59.67;45157.59;5058416;28;21100;-76
2021/12/09 09:07:15;;;;;;;10.50;8.47;;;;;;;-143.84;60.17;45146.19;5053987;28;20441;-76
2021/12/09 09:09:42;;;;;;;13.30;9.63;;;;;;;-143.84;60.93;45157.59;5051531;28;21052;-77
2021/12/09 09:12:14;;;;;;;9.93;8.13;;;;;;;-143.84;59.30;45142.38;5053025;28;20776;-77
2021/12/09 09:14:41;;;;;;;9.07;7.90;;;;;;;-143.84;59.52;45127.13;5052652;28;20489;-76
2021/12/09 09:17:14;;;;;;;10.07;8.07;;;;;;;-143.84;60.27;45153.81;5053154;28;20445;-76
2021/12/09 09:19:41;;;;;;;12.70;8.70;;;;;;;-143.84;60.40;45136.66;5053017;28;20445;-76
2021/12/09 09:22:08;;;;;;;10.57;8.20;;;;;;;-143.84;60.03;45144.28;5054506;28;20439;-76
2021/12/09 09:24:36;;;;;;;14.63;9.37;;;;;;;-143.84;61.35;45130.94;5056973;28;20480;-74
2021/12/09 09:27:04;;;;;;;12.03;8.73;;;;;;;-143.84;60.35;45148.09;5054645;28;20438;-74
2021/12/09 09:29:34;;;;;;;8.50;7.70;;;;;;;-143.84;59.97;45153.81;5070643;28;20432;-74
2021/12/09 09:32:02;;;;;;;11.17;9.00;;;;;;;-143.84;60.02;45167.13;5070626;28;20954;-74
2021/12/09 09:34:29;;;;;;;8.67;7.50;;;;;;;-143.84;58.06;45161.41;5070614;28;20980;-74
2021/12/09 09:36:57;;;;;;;13.80;8.80;;;;;;;-143.84;59.22;45148.09;5071614;28;20949;-74
2021/12/09 09:39:29;;;;;;;41.33;32.20;;;;;;;-143.84;59.55;45155.69;5069482;28;20440;-73
2021/12/09 09:42:16;;;;;;;12.50;8.30;;;;;;;-143.84;60.80;45150.00;5068792;28;20463;-75
2021/12/09 09:44:54;;;;;;;13.50;8.10;;;;;;;-143.84;61.33;45165.22;5071060;28;20488;-75
2021/12/09 09:47:23;;;;;;;9.53;8.10;;;;;;;-143.84;61.41;45123.34;5070286;28;20468;-76
2021/12/09 09:49:51;;;;;;;9.40;8.13;;;;;;;-143.84;61.01;45153.81;5070478;28;20453;-76
2021/12/09 09:52:19;;;;;;;10.77;7.60;;;;;;;-143.84;60.58;45136.66;5070222;28;20456;-76
2021/12/09 09:54:46;;;;;;;9.30;7.60;;;;;;;-143.84;62.37;45140.47;5070202;28;20433;-76
2021/12/09 09:57:14;;;;;;;9.17;7.40;;;;;;;-143.84;60.82;45138.56;5070032;28;20437;-76
2021/12/09 09:59:42;;;;;;;11.50;7.90;;;;;;;-143.84;61.10;45142.38;5070590;28;20976;-75
2021/12/09 10:02:12;;;;;;;7.53;6.83;;;;;;;-143.84;61.10;45155.69;5068944;28;20498;-74
2021/12/09 10:04:45;;;;;;;117.50;85.10;;;;;;;-143.84;61.12;45148.09;5068449;28;20487;-76
2021/12/09 10:07:14;;;;;;;8.83;7.90;;;;;;;-143.84;62.74;45098.56;5069336;28;20487;-76
2021/12/09 10:09:43;;;;;;;8.43;7.17;;;;;;;-143.84;61.69;45138.56;5070121;28;20879;-76
2021/12/09 10:12:12;;;;;;;10.13;6.50;;;;;;;-143.84;61.86;45127.13;5069417;28;20449;-75
2021/12/09 10:14:39;;;;;;;7.20;6.50;;;;;;;-143.84;62.17;45153.81;5069849;28;20868;-76
2021/12/09 10:17:10;;;;;;;8.70;6.07;;;;;;;-143.84;62.74;45138.56;5070067;28;20440;-76
2021/12/09 10:19:42;;;;;;;8.90;6.80;;;;;;;-143.84;63.77;45151.91;5069755;28;20818;-76
2021/12/09 10:22:12;;;;;;;7.93;6.80;;;;;;;-143.84;63.37;45119.53;5069318;28;20455;-76
2021/12/09 10:24:42;;;;;;;5.70;5.20;;;;;;;-143.84;63.01;45144.28;5069572;28;20480;-76
2021/12/09 10:27:13;;;;;;;8.57;6.27;;;;;;;-143.84;63.60;45157.59;5069592;28;20838;-76
2021/12/09 10:29:44;;;;;;;7.50;5.57;;;;;;;-143.84;64.05;45159.50;5070155;28;20436;-76
2021/12/09 10:32:19;;;;;;;7.10;6.40;;;;;;;-143.84;64.29;45138.56;5069880;28;20447;-76
2021/12/09 10:34:49;;;;;;;7.93;5.47;;;;;;;-143.84;64.16;45153.81;5069496;28;20460;-75
2021/12/09 10:37:20;;;;;;;9.73;6.10;;;;;;;-143.84;63.58;45142.38;5069517;28;20436;-75
2021/12/09 10:39:50;;;;;;;12.80;9.20;;;;;;;-143.84;64.96;45129.03;5066476;28;20460;-75
2021/12/09 10:42:22;;;;;;;59.77;36.00;;;;;;;-143.84;64.29;45161.41;5056836;28;21033;-74
2021/12/09 10:44:56;;;;;;;9.83;6.03;;;;;;;-143.84;65.65;45142.38;5051017;28;20485;-76
2021/12/09 10:47:36;;;;;;;16.13;6.30;;;;;;;-143.84;66.68;45146.19;5050759;28;20450;-77
2021/12/09 10:50:15;;;;;;;7.57;6.17;;;;;;;-143.84;66.66;45153.81;5053818;28;20527;-77
2021/12/09 10:52:46;;;;;;;7.47;6.23;;;;;;;-143.84;66.86;45153.81;5049140;28;20433;-76
2021/12/09 10:55:18;;;;;;;6.17;5.43;;;;;;;-143.84;66.73;45155.69;5049251;28;20470;-76
2021/12/09 10:57:53;;;;;;;11.53;6.10;;;;;;;-143.84;67.42;45151.91;5050641;28;20453;-74
2021/12/09 11:00:26;;;;;;;7.03;6.07;;;;;;;-143.84;67.31;45117.63;5052413;28;20464;-74
2021/12/09 11:03:15;;;;;;;16.23;12.77;;;;;;;-143.84;68.29;45136.66;5037398;28;20942;-73
2021/12/09 11:05:48;;;;;;;37.67;26.03;;;;;;;-143.84;67.50;45134.75;5048640;28;20483;-73
2021/12/09 11:08:29;;;;;;;123.23;76.40;;;;;;;-143.84;68.12;45212.84;5048825;28;20474;-74
2021/12/09 11:11:09;;;;;;;10.07;7.53;;;;;;;-143.84;68.61;45167.13;5048119;28;20445;-73
2021/12/09 11:13:45;;;;;;;7.90;6.50;;;;;;;-143.84;70.03;45153.81;5048794;28;20441;-74
2021/12/09 11:16:22;;;;;;;7.00;6.40;;;;;;;-143.84;70.07;45163.31;5048583;28;20479;-74